Time;durP1;ratioP1;P1;durP2;ratioP2;P2;SDS_P1;SDS_P2;PMS_P1;PMS_P2;Temp;Humidity;BMP_temperature;BMP_pressure;BME280_temperature;BME280_humidity;BME280_pressure;Samples;Min_cycle;Max_cycle;Signal;HPM_P1;HPM_P2
2021/12/22 00:01:49;;;;;;;36.00;26.17;;;1.40;99.90;;;;;;5107264;28;20394;-90
2021/12/22 00:04:51;;;;;;;34.40;25.05;;;1.30;99.90;;;;;;5107173;28;20756;-88
2021/12/22 00:07:19;;;;;;;34.67;24.63;;;1.40;99.90;;;;;;5110773;28;20397;-90
2021/12/22 00:09:45;;;;;;;34.78;25.45;;;1.40;99.90;;;;;;5107756;28;20425;-90
2021/12/22 00:12:12;;;;;;;34.47;24.83;;;1.50;99.90;;;;;;5110498;28;20410;-89
2021/12/22 00:14:38;;;;;;;30.10;21.50;;;1.50;99.90;;;;;;5110048;28;20378;-90
2021/12/22 00:17:06;;;;;;;27.27;19.85;;;1.40;99.90;;;;;;5111434;28;20390;-88
2021/12/22 00:19:54;;;;;;;24.95;18.90;;;1.50;99.90;;;;;;5119856;28;20394;-89
2021/12/22 00:22:20;;;;;;;23.15;17.45;;;1.50;99.90;;;;;;5114690;28;20386;-89
2021/12/22 00:25:06;;;;;;;27.73;18.40;;;1.50;99.90;;;;;;5116889;28;20370;-87
2021/12/22 00:27:34;;;;;;;24.83;19.08;;;1.60;99.90;;;;;;5114409;28;20473;-86
2021/12/22 00:30:00;;;;;;;28.07;19.83;;;1.60;99.90;;;;;;5118051;28;20406;-87
2021/12/22 00:32:28;;;;;;;29.25;20.70;;;1.60;99.90;;;;;;5114283;28;20402;-90
2021/12/22 00:34:57;;;;;;;25.15;18.40;;;1.60;99.90;;;;;;5127443;27;20404;-87
2021/12/22 00:37:28;;;;;;;26.23;18.47;;;1.60;99.90;;;;;;5114718;28;20394;-89
2021/12/22 00:39:57;;;;;;;23.75;18.67;;;1.60;99.90;;;;;;5118839;28;20398;-87
2021/12/22 00:42:31;;;;;;;23.58;18.30;;;1.70;99.90;;;;;;5117844;27;20367;-89
2021/12/22 00:44:59;;;;;;;25.75;18.63;;;1.70;99.90;;;;;;5134766;27;20373;-89
2021/12/22 00:47:30;;;;;;;25.35;19.33;;;1.70;99.90;;;;;;5112322;27;20374;-87
2021/12/22 00:50:01;;;;;;;26.23;18.73;;;1.70;99.90;;;;;;5117709;27;20375;-88
2021/12/22 00:52:36;;;;;;;24.08;18.05;;;1.70;99.90;;;;;;5128564;27;20399;-88
2021/12/22 00:55:16;;;;;;;24.30;18.13;;;1.70;99.90;;;;;;5104303;27;20396;-89
2021/12/22 00:57:53;;;;;;;24.52;18.75;;;1.70;99.90;;;;;;5132849;27;21188;-93
2021/12/22 01:00:22;;;;;;;20.30;17.23;;;1.80;99.90;;;;;;5106164;27;20866;-87
2021/12/22 01:02:48;;;;;;;20.65;17.83;;;1.80;99.90;;;;;;5122117;27;20378;-90
2021/12/22 01:05:19;;;;;;;22.73;18.60;;;1.70;99.90;;;;;;5120713;27;20372;-89
2021/12/22 01:07:47;;;;;;;23.52;18.52;;;1.80;99.90;;;;;;5134034;27;20369;-87
2021/12/22 01:10:24;;;;;;;23.10;17.93;;;1.80;99.90;;;;;;5132624;27;20456;-87
2021/12/22 01:12:53;;;;;;;24.95;19.73;;;1.80;99.90;;;;;;5133666;27;20357;-87
2021/12/22 01:15:20;;;;;;;28.48;22.50;;;1.70;99.90;;;;;;5129566;27;20820;-90
2021/12/22 01:17:56;;;;;;;27.42;22.13;;;1.70;99.90;;;;;;5124148;27;20367;-88
2021/12/22 01:20:36;;;;;;;24.58;21.42;;;1.60;99.90;;;;;;5118685;27;20818;-87
2021/12/22 01:23:03;;;;;;;27.50;21.35;;;1.40;99.90;;;;;;5113624;28;20390;-87
2021/12/22 01:25:37;;;;;;;27.38;22.77;;;1.30;99.90;;;;;;5124029;27;20417;-88
2021/12/22 01:28:03;;;;;;;27.17;22.20;;;1.30;99.90;;;;;;5115865;27;20950;-88
2021/12/22 01:30:32;;;;;;;27.30;21.88;;;1.30;99.90;;;;;;5127160;27;20411;-88
2021/12/22 01:33:07;;;;;;;21.45;18.65;;;1.30;99.90;;;;;;5113665;28;20390;-87
2021/12/22 01:35:37;;;;;;;21.87;18.37;;;1.20;99.90;;;;;;5117571;27;20371;-85
2021/12/22 01:38:04;;;;;;;19.48;16.52;;;1.30;99.90;;;;;;5135241;27;20389;-88
2021/12/22 01:40:30;;;;;;;19.15;17.02;;;1.10;99.90;;;;;;5132859;27;20742;-86
2021/12/22 01:42:56;;;;;;;21.93;18.03;;;1.10;99.90;;;;;;5133514;27;20384;-88
2021/12/22 01:46:31;;;;;;;21.63;18.48;;;1.10;99.90;;;;;;5126391;27;20370;-88
2021/12/22 01:49:11;;;;;;;22.15;18.33;;;1.10;99.90;;;;;;5130328;27;20977;-88
2021/12/22 01:51:51;;;;;;;21.00;17.30;;;1.10;99.90;;;;;;5121071;27;20387;-88
2021/12/22 01:54:21;;;;;;;22.43;18.70;;;1.10;99.90;;;;;;5116351;27;20378;-86
2021/12/22 01:56:48;;;;;;;18.05;15.55;;;1.00;99.90;;;;;;5116604;27;20374;-86
2021/12/22 01:59:15;;;;;;;18.55;15.40;;;0.90;99.90;;;;;;5118458;27;20377;-89
2021/12/22 02:01:43;;;;;;;18.33;16.23;;;1.00;99.90;;;;;;5113806;27;20387;-88
2021/12/22 02:04:11;;;;;;;17.75;15.45;;;0.90;99.90;;;;;;5113537;27;20379;-87
2021/12/22 02:06:55;;;;;;;17.10;14.05;;;0.80;99.90;;;;;;5133975;27;20452;-87
2021/12/22 02:09:59;;;;;;;17.13;15.17;;;0.80;99.90;;;;;;5132996;27;20416;-86
2021/12/22 02:12:11;;;;;;;15.60;11.68;;;0.80;99.90;;;;;;5134539;27;20432;-87
2021/12/22 02:14:37;;;;;;;16.85;13.30;;;0.90;99.90;;;;;;5126689;27;20856;-89
2021/12/22 02:17:07;;;;;;;18.60;14.70;;;0.90;99.90;;;;;;5134014;27;20401;-88
2021/12/22 02:19:51;;;;;;;19.10;14.35;;;0.90;99.90;;;;;;5128129;27;20419;-87
2021/12/22 02:22:18;;;;;;;16.98;15.18;;;1.00;99.90;;;;;;5119192;27;20459;-90
2021/12/22 02:24:59;;;;;;;21.08;16.20;;;1.00;99.90;;;;;;5131830;27;20393;-90
2021/12/22 02:27:39;;;;;;;23.20;17.13;;;1.00;99.90;;;;;;5113655;28;20362;-88
2021/12/22 02:30:13;;;;;;;19.50;17.33;;;0.90;99.90;;;;;;5118950;27;20378;-87
2021/12/22 02:38:13;;;;;;;22.83;18.77;;;0.80;99.90;;;;;;5133786;27;20392;-88
2021/12/22 02:40:38;;;;;;;22.75;18.23;;;0.80;99.90;;;;;;5132089;27;20456;-90
2021/12/22 02:43:05;;;;;;;20.90;18.43;;;0.70;99.90;;;;;;5137815;27;20427;-88
2021/12/22 02:45:33;;;;;;;20.05;17.52;;;0.70;99.90;;;;;;5136241;27;20389;-87
2021/12/22 02:48:00;;;;;;;22.88;17.65;;;0.70;99.90;;;;;;5148905;27;20385;-87
2021/12/22 02:50:25;;;;;;;24.15;18.00;;;0.70;99.90;;;;;;5117574;27;20382;-91
2021/12/22 02:53:10;;;;;;;21.83;18.40;;;0.70;99.90;;;;;;5123857;27;20369;-88
2021/12/22 02:56:17;;;;;;;23.23;18.15;;;0.70;99.90;;;;;;5120342;27;20392;-87
2021/12/22 03:06:32;;;;;;;24.65;19.20;;;0.60;99.90;;;;;;5132114;27;20387;-85
2021/12/22 03:08:58;;;;;;;24.13;19.40;;;0.60;99.90;;;;;;5130238;27;20491;-89
2021/12/22 03:11:24;;;;;;;29.80;21.52;;;0.50;99.90;;;;;;5132274;27;20455;-88
2021/12/22 03:13:50;;;;;;;28.15;22.45;;;0.60;99.90;;;;;;5118287;27;20444;-85
2021/12/22 03:16:19;;;;;;;28.20;22.80;;;0.60;99.90;;;;;;5117591;27;20434;-88
2021/12/22 03:18:45;;;;;;;29.77;23.73;;;0.50;99.90;;;;;;5127130;27;20389;-87
2021/12/22 03:21:22;;;;;;;30.20;22.95;;;0.60;99.90;;;;;;5130677;27;20975;-87
2021/12/22 03:23:51;;;;;;;28.63;23.58;;;0.60;99.90;;;;;;5119448;27;20382;-87
2021/12/22 03:26:18;;;;;;;27.38;22.02;;;0.60;99.90;;;;;;5125273;27;20388;-88
2021/12/22 03:28:48;;;;;;;28.13;22.00;;;0.70;99.90;;;;;;5134369;27;20390;-87
2021/12/22 03:31:14;;;;;;;25.95;21.85;;;0.70;99.90;;;;;;5140519;27;20384;-86
2021/12/22 03:33:41;;;;;;;26.58;21.10;;;0.70;99.90;;;;;;5123960;27;20907;-88
2021/12/22 03:36:07;;;;;;;25.43;20.93;;;0.70;99.90;;;;;;5117329;27;20374;-87
2021/12/22 03:38:35;;;;;;;25.20;20.50;;;0.60;99.90;;;;;;5112991;28;20396;-88
2021/12/22 03:41:01;;;;;;;28.25;20.75;;;0.60;99.90;;;;;;5113967;28;20378;-87
2021/12/22 03:43:27;;;;;;;24.88;20.50;;;0.60;99.90;;;;;;5120974;27;20380;-85
2021/12/22 03:45:53;;;;;;;20.63;18.10;;;0.70;99.90;;;;;;5131077;27;20372;-88
2021/12/22 03:48:19;;;;;;;23.10;19.13;;;0.80;99.90;;;;;;5131903;27;20421;-88
2021/12/22 03:50:45;;;;;;;21.30;18.45;;;0.70;99.90;;;;;;5129739;27;20437;-88
2021/12/22 03:53:11;;;;;;;23.58;19.02;;;0.60;99.90;;;;;;5125772;27;20413;-88
2021/12/22 03:55:37;;;;;;;21.67;19.05;;;0.70;99.90;;;;;;5112936;28;20370;-86
2021/12/22 03:58:04;;;;;;;22.50;18.03;;;0.70;99.90;;;;;;5114067;27;20453;-87
2021/12/22 04:00:31;;;;;;;22.33;19.55;;;0.70;99.90;;;;;;5115715;28;20390;-88
2021/12/22 04:02:57;;;;;;;23.55;18.83;;;0.70;99.90;;;;;;5115776;28;20374;-89
2021/12/22 04:05:23;;;;;;;26.40;19.92;;;0.70;99.90;;;;;;5111546;28;20367;-88
2021/12/22 04:07:49;;;;;;;25.88;21.23;;;0.70;99.90;;;;;;5112685;28;20371;-89
2021/12/22 04:10:22;;;;;;;25.03;21.00;;;0.70;99.90;;;;;;5111718;28;20394;-86
2021/12/22 04:12:51;;;;;;;25.15;20.83;;;0.60;99.90;;;;;;5114015;28;20389;-89
2021/12/22 04:15:44;;;;;;;27.45;20.80;;;0.60;99.90;;;;;;5113456;28;20381;-87
2021/12/22 04:18:10;;;;;;;29.17;22.25;;;0.70;99.90;;;;;;5114609;28;20378;-87
2021/12/22 04:20:36;;;;;;;28.40;22.25;;;0.70;99.90;;;;;;5111589;28;20374;-88
2021/12/22 04:23:03;;;;;;;29.73;22.00;;;0.60;99.90;;;;;;5111347;28;20447;-89
2021/12/22 04:25:30;;;;;;;27.77;22.63;;;0.70;99.90;;;;;;5112385;28;20406;-86
2021/12/22 04:28:04;;;;;;;28.43;22.77;;;0.60;99.90;;;;;;5111576;28;20837;-89
2021/12/22 04:30:32;;;;;;;28.70;23.05;;;0.70;99.90;;;;;;5111323;28;20374;-89
2021/12/22 04:32:59;;;;;;;27.80;22.65;;;0.70;99.90;;;;;;5111899;27;20728;-88
2021/12/22 04:35:25;;;;;;;28.23;23.40;;;0.70;99.90;;;;;;5111873;28;20382;-88
2021/12/22 04:37:51;;;;;;;27.42;22.42;;;0.70;99.90;;;;;;5110416;28;20378;-88
2021/12/22 04:40:17;;;;;;;29.83;23.47;;;0.70;99.90;;;;;;5109394;28;20414;-89
2021/12/22 04:42:44;;;;;;;26.13;21.57;;;0.70;99.90;;;;;;5110187;28;20392;-87
2021/12/22 04:45:10;;;;;;;28.58;22.02;;;0.70;99.90;;;;;;5110135;28;20383;-87
2021/12/22 04:47:36;;;;;;;24.50;21.27;;;0.70;99.90;;;;;;5110597;28;20439;-87
2021/12/22 04:50:09;;;;;;;26.15;21.20;;;0.80;99.90;;;;;;5109460;28;20884;-87
2021/12/22 04:52:42;;;;;;;27.50;21.63;;;0.70;99.90;;;;;;5111776;28;20405;-88
2021/12/22 04:55:08;;;;;;;24.77;21.07;;;0.60;99.90;;;;;;5110309;28;20910;-87
2021/12/22 04:57:34;;;;;;;26.25;20.80;;;0.50;99.90;;;;;;5111332;28;20395;-86
2021/12/22 05:00:01;;;;;;;25.02;21.33;;;0.60;99.90;;;;;;5110797;28;20879;-86
2021/12/22 05:02:27;;;;;;;22.48;19.98;;;0.70;99.90;;;;;;5110968;28;20436;-87
2021/12/22 05:04:53;;;;;;;22.75;20.30;;;0.80;99.90;;;;;;5119773;28;20382;-87
2021/12/22 05:07:18;;;;;;;23.30;20.50;;;0.80;99.90;;;;;;5124760;28;20383;-86
2021/12/22 05:09:44;;;;;;;24.30;19.95;;;0.80;99.90;;;;;;5101764;28;20400;-89
2021/12/22 05:12:10;;;;;;;22.15;19.75;;;0.80;99.90;;;;;;5089537;28;20373;-89
2021/12/22 05:14:36;;;;;;;22.42;20.02;;;0.80;99.90;;;;;;5113614;27;20870;-89
2021/12/22 05:17:05;;;;;;;22.77;20.00;;;0.70;99.90;;;;;;5133401;27;20889;-87
2021/12/22 05:19:30;;;;;;;23.13;20.70;;;0.70;99.90;;;;;;5135586;27;20388;-85
2021/12/22 05:21:56;;;;;;;25.25;19.70;;;0.70;99.90;;;;;;5121593;28;20756;-87
2021/12/22 05:24:22;;;;;;;22.35;19.38;;;0.70;99.90;;;;;;5126474;27;20824;-86
2021/12/22 05:26:48;;;;;;;21.15;18.70;;;0.70;99.90;;;;;;5134378;27;20377;-89
2021/12/22 05:29:14;;;;;;;24.20;20.53;;;0.70;99.90;;;;;;5132687;27;20398;-88
2021/12/22 05:31:40;;;;;;;24.03;20.80;;;0.70;99.90;;;;;;5127953;27;20378;-88
2021/12/22 05:34:06;;;;;;;21.77;19.37;;;0.50;99.90;;;;;;5114570;27;20398;-87
2021/12/22 05:36:31;;;;;;;24.38;19.85;;;0.50;99.90;;;;;;5118339;27;20410;-85
2021/12/22 05:38:57;;;;;;;25.42;20.88;;;0.30;99.90;;;;;;5114621;28;20374;-87
2021/12/22 05:41:24;;;;;;;24.98;20.67;;;0.30;99.90;;;;;;5131587;27;20368;-87
2021/12/22 05:43:49;;;;;;;24.88;20.85;;;0.10;99.90;;;;;;5131303;27;20382;-89
2021/12/22 05:46:16;;;;;;;23.27;20.30;;;0.00;99.90;;;;;;5113557;27;20370;-86
2021/12/22 05:48:44;;;;;;;25.00;20.38;;;-0.10;99.90;;;;;;5122385;27;20415;-90
2021/12/22 05:51:10;;;;;;;24.98;21.67;;;-0.20;99.90;;;;;;5131976;27;20389;-86
2021/12/22 05:53:36;;;;;;;26.15;20.88;;;-0.20;99.90;;;;;;5116345;27;20740;-88
2021/12/22 05:56:03;;;;;;;26.65;21.83;;;-0.30;99.90;;;;;;5113809;28;20469;-87
2021/12/22 05:58:29;;;;;;;26.58;20.05;;;-0.40;99.90;;;;;;5115437;28;20371;-86
2021/12/22 06:00:55;;;;;;;27.25;21.63;;;-0.50;99.90;;;;;;5121650;27;20485;-89
2021/12/22 06:03:21;;;;;;;25.73;22.38;;;-0.50;99.90;;;;;;5123789;27;20373;-88
2021/12/22 06:05:46;;;;;;;25.25;21.90;;;-0.60;99.90;;;;;;5138853;27;20392;-87
2021/12/22 06:08:12;;;;;;;26.85;21.38;;;-0.70;99.90;;;;;;5135241;27;20878;-88
2021/12/22 06:10:38;;;;;;;25.38;22.45;;;-0.70;99.90;;;;;;5121638;27;20899;-86
2021/12/22 06:13:08;;;;;;;27.33;22.85;;;-0.80;99.90;;;;;;5113293;28;20482;-88
2021/12/22 06:15:35;;;;;;;26.20;22.47;;;-0.90;99.90;;;;;;5113050;27;21048;-86
2021/12/22 06:18:10;;;;;;;28.80;23.08;;;-0.90;99.90;;;;;;5115498;28;20367;-86
2021/12/22 06:20:36;;;;;;;28.35;22.60;;;-1.00;99.90;;;;;;5126400;27;20400;-85
2021/12/22 06:23:03;;;;;;;27.55;22.63;;;-1.00;99.90;;;;;;5133576;27;20369;-88
2021/12/22 06:25:29;;;;;;;29.98;23.58;;;-1.10;99.90;;;;;;5134025;27;20373;-87
2021/12/22 06:27:55;;;;;;;27.77;22.95;;;-1.10;99.90;;;;;;5133677;27;20374;-87
2021/12/22 06:30:21;;;;;;;27.80;22.97;;;-1.20;99.90;;;;;;5128848;27;20373;-88
2021/12/22 06:32:49;;;;;;;34.17;25.30;;;-1.20;99.90;;;;;;5116628;27;20448;-87
2021/12/22 06:35:15;;;;;;;29.60;24.27;;;-1.30;99.90;;;;;;5126543;27;20375;-88
2021/12/22 06:37:43;;;;;;;31.87;25.60;;;-1.30;99.90;;;;;;5110261;27;20398;-82
2021/12/22 06:40:10;;;;;;;29.52;24.80;;;-1.40;99.90;;;;;;5124044;27;20372;-83
2021/12/22 06:42:38;;;;;;;29.70;24.92;;;-1.40;99.90;;;;;;5131176;27;20734;-83
2021/12/22 06:45:08;;;;;;;32.23;25.80;;;-1.50;99.90;;;;;;5127461;27;20447;-83
2021/12/22 06:47:34;;;;;;;28.85;24.48;;;-1.50;99.90;;;;;;5111369;28;20407;-83
2021/12/22 06:50:00;;;;;;;29.92;25.10;;;-1.50;99.90;;;;;;5115464;27;20412;-83
2021/12/22 06:52:26;;;;;;;31.52;25.73;;;-1.60;99.90;;;;;;5134098;27;20381;-82
2021/12/22 06:54:52;;;;;;;28.77;24.30;;;-1.60;99.90;;;;;;5130224;27;20848;-82
2021/12/22 06:57:21;;;;;;;32.92;25.58;;;-1.70;99.90;;;;;;5112286;28;20787;-82
2021/12/22 06:59:48;;;;;;;31.35;26.20;;;-1.70;99.90;;;;;;5114290;27;20377;-82
2021/12/22 07:02:14;;;;;;;33.92;26.92;;;-1.70;99.90;;;;;;5127849;27;20397;-83
2021/12/22 07:04:40;;;;;;;32.20;25.77;;;-1.70;99.90;;;;;;5129241;27;20391;-84
2021/12/22 07:07:06;;;;;;;32.80;25.92;;;-1.80;99.90;;;;;;5119916;27;20379;-82
2021/12/22 07:09:35;;;;;;;30.02;24.77;;;-1.80;99.90;;;;;;5131326;27;20389;-83
2021/12/22 07:12:00;;;;;;;32.00;25.88;;;-1.90;99.90;;;;;;5131813;27;20384;-83
2021/12/22 07:14:26;;;;;;;31.23;25.10;;;-1.90;99.90;;;;;;5131680;27;20385;-83
2021/12/22 07:16:53;;;;;;;28.85;24.40;;;-1.90;99.90;;;;;;5131323;27;20365;-83
2021/12/22 07:19:19;;;;;;;30.25;23.70;;;-2.00;99.90;;;;;;5129576;27;20385;-82
2021/12/22 07:21:44;;;;;;;31.52;25.48;;;-2.00;99.90;;;;;;5132357;27;20388;-83
2021/12/22 07:24:11;;;;;;;29.17;24.23;;;-2.00;99.90;;;;;;5131616;27;20393;-83
2021/12/22 07:26:42;;;;;;;29.13;23.45;;;-2.00;99.90;;;;;;5130840;27;20889;-84
2021/12/22 07:29:08;;;;;;;31.15;23.30;;;-2.00;99.90;;;;;;5132013;27;20453;-83
2021/12/22 07:31:35;;;;;;;28.02;22.63;;;-2.00;99.90;;;;;;5132166;27;20858;-84
2021/12/22 07:34:33;;;;;;;31.77;25.67;;;-2.00;99.90;;;;;;5126642;27;20364;-82
2021/12/22 07:37:21;;;;;;;53.60;41.50;;;-2.00;99.90;;;;;;5080764;28;20388;-82
2021/12/22 07:39:49;;;;;;;61.83;47.40;;;-2.00;99.90;;;;;;5099607;28;20385;-83
2021/12/22 07:42:19;;;;;;;61.95;48.25;;;-2.00;99.90;;;;;;5103841;28;20450;-83
2021/12/22 07:44:44;;;;;;;52.50;40.10;;;-1.90;99.90;;;;;;5129629;27;20373;-84
2021/12/22 07:47:11;;;;;;;48.10;37.13;;;-1.90;99.90;;;;;;5123803;27;20435;-82
2021/12/22 07:49:37;;;;;;;45.13;34.17;;;-1.90;99.90;;;;;;5113287;27;20383;-82
2021/12/22 07:52:03;;;;;;;41.20;32.23;;;-1.90;99.90;;;;;;5112114;28;20752;-84
2021/12/22 07:54:30;;;;;;;40.50;31.67;;;-1.90;99.90;;;;;;5113780;28;20378;-82
2021/12/22 07:57:18;;;;;;;41.88;32.80;;;-1.90;99.90;;;;;;5113240;28;20383;-84
2021/12/22 07:59:44;;;;;;;39.00;29.88;;;-1.80;99.90;;;;;;5114116;27;20363;-81
2021/12/22 08:02:10;;;;;;;37.88;30.50;;;-1.80;99.90;;;;;;5120391;27;20732;-83
2021/12/22 08:04:36;;;;;;;35.97;30.52;;;-1.70;99.90;;;;;;5118715;27;20400;-84
2021/12/22 08:07:06;;;;;;;34.08;27.73;;;-1.70;99.90;;;;;;5131754;27;20372;-84
2021/12/22 08:09:38;;;;;;;35.50;28.08;;;-1.60;99.90;;;;;;5136190;27;20405;-83
2021/12/22 08:15:30;;;;;;;31.63;25.52;;;-1.50;99.90;;;;;;5125475;27;20397;-83
2021/12/22 08:17:57;;;;;;;30.40;24.80;;;-1.40;99.90;;;;;;5110640;28;20408;-82
2021/12/22 08:20:29;;;;;;;26.92;23.45;;;-1.30;99.90;;;;;;5109612;28;20923;-83
2021/12/22 08:22:55;;;;;;;34.95;28.88;;;-1.20;99.90;;;;;;5112384;28;20821;-83
2021/12/22 08:25:21;;;;;;;39.70;33.07;;;-1.10;99.90;;;;;;5112449;28;20378;-83
2021/12/22 08:27:49;;;;;;;32.17;25.58;;;-1.10;99.90;;;;;;5113324;28;20382;-83
2021/12/22 08:30:14;;;;;;;28.55;23.65;;;-1.00;99.90;;;;;;5105242;28;20464;-83
2021/12/22 08:32:41;;;;;;;29.00;24.63;;;-0.90;99.90;;;;;;5111222;27;20371;-82
2021/12/22 08:35:08;;;;;;;32.40;26.35;;;-0.80;99.90;;;;;;5109904;28;20698;-84
2021/12/22 08:40:32;;;;;;;31.23;25.17;;;-0.60;99.90;;;;;;5112152;28;20412;-83
2021/12/22 08:42:58;;;;;;;29.27;25.10;;;-0.50;99.90;;;;;;5110191;28;20418;-82
2021/12/22 08:45:25;;;;;;;29.80;26.13;;;-0.40;99.90;;;;;;5111296;28;20808;-82
2021/12/22 08:47:50;;;;;;;30.20;26.58;;;-0.40;99.90;;;;;;5109403;28;20374;-82
2021/12/22 08:50:17;;;;;;;32.58;26.48;;;-0.20;99.90;;;;;;5115480;27;20930;-82
2021/12/22 08:52:43;;;;;;;32.45;27.20;;;-0.10;99.90;;;;;;5119345;27;20401;-83
2021/12/22 08:55:10;;;;;;;30.38;26.48;;;0.00;99.90;;;;;;5133173;27;20866;-83
2021/12/22 08:57:36;;;;;;;36.30;27.27;;;0.00;99.90;;;;;;5134142;27;20830;-84
2021/12/22 09:00:09;;;;;;;34.33;26.73;;;0.10;99.90;;;;;;5134231;27;20372;-84
2021/12/22 09:02:37;;;;;;;31.17;25.65;;;0.10;99.90;;;;;;5135352;27;20409;-83
2021/12/22 09:05:05;;;;;;;32.95;26.60;;;0.20;99.90;;;;;;5115544;27;20377;-83
2021/12/22 09:07:31;;;;;;;35.55;26.27;;;0.20;99.90;;;;;;5134875;27;20890;-83
2021/12/22 09:09:57;;;;;;;34.28;26.48;;;0.30;99.90;;;;;;5125376;27;20382;-83
2021/12/22 09:12:27;;;;;;;32.37;26.37;;;0.30;99.90;;;;;;5112955;28;20374;-83
2021/12/22 09:14:57;;;;;;;34.85;26.85;;;0.40;99.90;;;;;;5113879;28;20407;-84
